Hampton Beach, New Hampshire
Current Conditions -  °F | °C
As of 3:58 PM on Friday 28 Nov 2014 (Local Time) from KPSM Reporting Station
Scattered Clouds Scattered Clouds  
Wind Chill: 19°   Ceiling: Unl
Heat Index: 29°   Visibility: 10mi
Dew Point: 18°   Wind: 14mph
Humidity: 63%   Direction: 300°WNW
Pressure: 30.06"   Gusts: NA
Location:  42.9284°N, 70.8566°W
Report Text: KPSM 282058Z 30012KT 10SM SCT045 M01/M08 A3006 RMK AO2A SLP184 T10141077 53010
Loading
Personal Weather Stations






























Interactive Weather Map New forecast layout! Learn more

10-Day Weather Forecast

Advertisements
Track Severe Weather on mobile